createdAt,value
2023-03-22T00:02:23.158Z,98104.34
2023-03-22T00:04:49.945Z,98138.91
2023-03-22T00:07:16.731Z,98099.84
2023-03-22T00:09:43.556Z,98145.47
2023-03-22T00:12:10.487Z,98103.63
2023-03-22T00:14:37.316Z,98079.28
2023-03-22T00:17:04.204Z,98073.91
2023-03-22T00:19:34.177Z,98123.44
2023-03-22T00:22:01.348Z,98066.41
2023-03-22T00:24:28.047Z,98075.53
2023-03-22T00:26:54.779Z,98067.00
2023-03-22T00:29:22.928Z,98063.19
2023-03-22T00:31:50.346Z,98045.06
2023-03-22T00:34:17.076Z,98040.91
2023-03-22T00:36:43.864Z,98040.91
2023-03-22T00:39:10.666Z,98065.31
2023-03-22T00:41:37.406Z,98042.19
2023-03-22T00:44:04.124Z,97997.88
2023-03-22T00:46:30.849Z,97959.84
2023-03-22T00:48:57.586Z,98019.97
2023-03-22T00:51:24.587Z,98024.78
2023-03-22T00:53:52.429Z,97987.69
2023-03-22T00:56:19.668Z,98000.75
2023-03-22T00:58:46.458Z,97976.06
2023-03-22T01:01:15.904Z,97916.25
2023-03-22T01:03:43.864Z,97960.19
2023-03-22T01:06:11.628Z,97891.25
2023-03-22T01:08:39.487Z,97932.34
2023-03-22T01:11:07.708Z,97934.59
2023-03-22T01:13:37.881Z,97942.72
2023-03-22T01:16:06.345Z,97881.25
2023-03-22T01:18:33.113Z,97900.09
2023-03-22T01:21:00.508Z,97909.50
2023-03-22T01:23:27.279Z,97878.38
2023-03-22T01:25:53.962Z,97868.91
2023-03-22T01:28:20.888Z,97883.63
2023-03-22T01:30:47.705Z,97889.56
2023-03-22T01:33:14.464Z,97886.69
2023-03-22T01:35:41.201Z,97864.00
2023-03-22T01:38:07.920Z,97841.72
2023-03-22T01:40:35.117Z,97887.78
2023-03-22T01:43:01.937Z,97849.75
2023-03-22T01:45:42.606Z,97814.19
2023-03-22T01:48:27.302Z,97843.75
2023-03-22T01:51:04.577Z,97855.66
2023-03-22T01:53:36.705Z,97804.25
2023-03-22T01:56:03.890Z,97833.41
2023-03-22T01:58:32.048Z,97786.38
2023-03-22T02:00:59.524Z,97773.88
2023-03-22T02:03:36.965Z,97819.28
2023-03-22T02:06:03.796Z,97783.38
2023-03-22T02:08:32.445Z,97776.94
2023-03-22T02:11:01.630Z,97778.03
2023-03-22T02:13:56.232Z,97772.44
2023-03-22T02:16:38.485Z,97690.19
2023-03-22T02:19:23.880Z,97756.22
2023-03-22T02:22:22.042Z,97747.31
2023-03-22T02:25:08.018Z,97739.38
2023-03-22T02:28:05.076Z,97719.81
2023-03-22T02:30:50.020Z,97726.94
2023-03-22T02:33:41.573Z,97721.72
2023-03-22T02:36:35.556Z,97659.34
2023-03-22T02:39:23.472Z,97620.25
2023-03-22T02:42:06.974Z,97658.38
2023-03-22T02:44:52.329Z,97661.41
2023-03-22T02:47:25.565Z,97592.19
2023-03-22T02:50:06.268Z,97614.81
2023-03-22T02:52:40.943Z,97630.56
2023-03-22T02:55:24.243Z,97646.56
2023-03-22T02:58:03.695Z,97637.53
2023-03-22T03:00:33.402Z,97594.44
2023-03-22T03:03:11.489Z,97622.81
2023-03-22T03:05:44.975Z,97583.00
2023-03-22T03:08:14.040Z,97588.69
2023-03-22T03:10:42.373Z,97523.59
2023-03-22T03:13:17.387Z,97573.25
2023-03-22T03:15:48.875Z,97512.00
2023-03-22T03:18:35.229Z,97558.72
2023-03-22T03:21:17.900Z,97553.25
2023-03-22T03:24:08.870Z,97545.03
2023-03-22T03:26:42.030Z,97539.09
2023-03-22T03:29:50.803Z,97552.91
2023-03-22T03:32:35.325Z,97521.38
2023-03-22T03:35:06.879Z,97468.31
2023-03-22T03:37:48.423Z,97500.81
2023-03-22T03:40:20.954Z,97470.03
2023-03-22T03:42:52.826Z,97490.94
2023-03-22T03:45:22.306Z,97476.56
2023-03-22T03:47:57.040Z,97446.16
2023-03-22T03:50:26.012Z,97435.22
2023-03-22T03:52:54.829Z,97474.13
2023-03-22T03:55:22.793Z,97479.81
2023-03-22T03:57:49.578Z,97476.47
2023-03-22T04:00:17.753Z,97450.66
2023-03-22T04:02:45.123Z,97465.50
2023-03-22T04:05:13.521Z,97428.09
2023-03-22T04:07:40.681Z,97429.19
2023-03-22T04:10:08.626Z,97442.13
2023-03-22T04:12:35.753Z,97398.53
2023-03-22T04:15:02.714Z,97388.16
2023-03-22T04:17:29.461Z,97377.22
2023-03-22T04:19:56.753Z,97420.34
2023-03-22T04:22:25.156Z,97361.47
2023-03-22T04:24:51.871Z,97356.03
2023-03-22T04:27:20.611Z,97322.56
2023-03-22T04:29:51.286Z,97385.63
2023-03-22T04:32:19.236Z,97366.28
2023-03-22T04:34:49.203Z,97331.22
2023-03-22T04:37:16.722Z,97347.88
2023-03-22T04:39:44.047Z,97351.75
2023-03-22T04:42:10.847Z,97284.09
2023-03-22T04:44:37.565Z,97318.13
2023-03-22T04:47:04.533Z,97328.19
2023-03-22T04:49:31.581Z,97313.78
2023-03-22T04:51:58.603Z,97341.88
2023-03-22T04:54:25.849Z,97276.94
2023-03-22T04:56:52.888Z,97290.53
2023-03-22T04:59:20.456Z,97330.63
2023-03-22T05:01:48.507Z,97318.88
2023-03-22T05:04:16.628Z,97332.56
2023-03-22T05:06:43.459Z,97291.00
2023-03-22T05:09:10.590Z,97284.44
2023-03-22T05:11:37.809Z,97292.41
2023-03-22T05:14:04.900Z,97286.59
2023-03-22T05:16:31.713Z,97292.28
2023-03-22T05:18:58.557Z,97262.06
2023-03-22T05:21:28.625Z,97260.56
2023-03-22T05:23:58.106Z,97290.56
2023-03-22T05:26:26.596Z,97280.56
2023-03-22T05:28:54.395Z,97291.03
2023-03-22T05:31:22.399Z,97285.50
2023-03-22T05:33:50.649Z,97245.06
2023-03-22T05:36:19.311Z,97294.19
2023-03-22T05:38:46.818Z,97277.81
2023-03-22T05:41:14.582Z,97278.63
2023-03-22T05:43:42.085Z,97311.06
2023-03-22T05:46:11.205Z,97302.03
2023-03-22T05:48:39.869Z,97290.47
2023-03-22T05:51:07.861Z,97266.00
2023-03-22T05:53:35.461Z,97300.41
2023-03-22T05:56:02.362Z,97252.78
2023-03-22T05:58:30.951Z,97241.50
2023-03-22T06:01:01.204Z,97268.88
2023-03-22T06:03:28.654Z,97268.06
2023-03-22T06:05:55.437Z,97261.28
2023-03-22T06:08:26.558Z,97297.47
2023-03-22T06:10:54.249Z,97299.25
2023-03-22T06:13:21.368Z,97290.47
2023-03-22T06:15:48.262Z,97229.94
2023-03-22T06:18:14.995Z,97253.38
2023-03-22T06:20:42.221Z,97250.63
2023-03-22T06:23:09.113Z,97266.50
2023-03-22T06:25:35.940Z,97209.81
2023-03-22T06:28:02.995Z,97318.31
2023-03-22T06:30:29.798Z,97315.78
2023-03-22T06:33:00.667Z,97297.75
2023-03-22T06:35:27.939Z,97331.69
2023-03-22T06:37:54.739Z,97306.34
2023-03-22T06:40:21.522Z,97301.63
2023-03-22T06:42:48.429Z,97334.38
2023-03-22T06:45:16.648Z,97328.97
2023-03-22T06:47:44.575Z,97383.53
2023-03-22T06:50:12.048Z,97391.78
2023-03-22T06:52:38.853Z,97376.53
2023-03-22T06:55:06.020Z,97346.97
2023-03-22T06:57:32.795Z,97372.25
2023-03-22T06:59:59.486Z,97362.44
2023-03-22T07:02:26.206Z,97345.81
2023-03-22T07:04:53.023Z,97391.34
2023-03-22T07:07:19.722Z,97374.66
2023-03-22T07:09:46.542Z,97417.22
2023-03-22T07:12:13.233Z,97431.81
2023-03-22T07:14:40.492Z,97453.16
2023-03-22T07:17:07.250Z,97412.56
2023-03-22T07:19:34.265Z,97468.16
2023-03-22T07:22:00.992Z,97465.28
2023-03-22T07:24:27.774Z,97432.84
2023-03-22T07:26:54.479Z,97433.50
2023-03-22T07:29:21.569Z,97441.97
2023-03-22T07:31:48.451Z,97481.66
2023-03-22T07:34:16.397Z,97457.09
2023-03-22T07:36:43.259Z,97491.59
2023-03-22T07:39:10.067Z,97475.88
2023-03-22T07:41:36.890Z,97493.09
2023-03-22T07:44:16.978Z,97455.09
2023-03-22T07:46:44.745Z,97514.31
2023-03-22T07:49:11.563Z,97510.50
2023-03-22T07:51:38.317Z,97518.16
2023-03-22T07:54:07.582Z,97509.19
2023-03-22T07:56:34.589Z,97512.66
2023-03-22T07:59:01.416Z,97543.78
2023-03-22T08:01:28.462Z,97534.81
2023-03-22T08:03:55.329Z,97548.31
2023-03-22T08:06:22.058Z,97504.50
2023-03-22T08:08:48.765Z,97564.72
2023-03-22T08:11:15.607Z,97512.63
2023-03-22T08:13:42.346Z,97502.44
2023-03-22T08:16:09.112Z,97518.69
2023-03-22T08:18:36.250Z,97510.19
2023-03-22T08:21:02.986Z,97545.00
2023-03-22T08:23:41.037Z,97525.72
2023-03-22T08:26:10.444Z,97585.66
2023-03-22T08:28:37.540Z,97592.69
2023-03-22T08:31:13.917Z,97573.66
2023-03-22T08:33:42.980Z,97574.34
2023-03-22T08:36:12.312Z,97605.50
2023-03-22T08:38:38.984Z,97555.03
2023-03-22T08:41:05.951Z,97569.53
2023-03-22T08:43:32.641Z,97565.56
2023-03-22T08:45:59.666Z,97553.28
2023-03-22T08:48:29.225Z,97552.47
2023-03-22T08:50:56.334Z,97598.91
2023-03-22T08:53:23.614Z,97539.06
2023-03-22T08:55:51.077Z,97540.75
2023-03-22T08:58:20.087Z,97573.69
2023-03-22T09:00:49.503Z,97551.78
2023-03-22T09:03:16.988Z,97590.50
2023-03-22T09:05:44.003Z,97577.22
2023-03-22T09:08:18.538Z,97562.38
2023-03-22T09:10:52.656Z,97528.78
2023-03-22T09:13:20.511Z,97574.91
2023-03-22T09:15:47.653Z,97532.44
2023-03-22T09:18:15.442Z,97537.06
2023-03-22T09:20:43.802Z,97545.50
2023-03-22T09:23:10.536Z,97518.03
2023-03-22T09:25:37.802Z,97517.06
2023-03-22T09:28:05.602Z,97566.63
2023-03-22T09:30:32.242Z,97587.78
2023-03-22T09:32:58.930Z,97567.66
2023-03-22T09:35:26.074Z,97557.13
2023-03-22T09:37:56.150Z,97534.09
2023-03-22T09:40:28.939Z,97540.97
2023-03-22T09:42:59.193Z,97576.06
2023-03-22T09:45:38.471Z,97530.91
2023-03-22T09:48:21.210Z,97591.38
2023-03-22T09:50:51.536Z,97599.19
2023-03-22T09:53:18.636Z,97594.88
2023-03-22T09:55:52.872Z,97570.19
2023-03-22T09:58:33.135Z,97556.44
2023-03-22T10:01:12.428Z,97600.00
2023-03-22T10:04:02.346Z,97613.50
2023-03-22T10:06:30.788Z,97598.19
2023-03-22T10:09:34.625Z,97598.03
2023-03-22T10:12:22.541Z,97533.03
2023-03-22T10:14:57.812Z,97603.31
2023-03-22T10:17:27.212Z,97564.31
2023-03-22T10:19:59.150Z,97527.94
2023-03-22T10:22:33.210Z,97591.72
2023-03-22T10:25:01.030Z,97596.78
2023-03-22T10:27:30.180Z,97608.78
2023-03-22T10:30:04.499Z,97586.03
2023-03-22T10:32:57.059Z,97560.97
2023-03-22T10:35:24.683Z,97594.59
2023-03-22T10:37:52.777Z,97577.91
2023-03-22T10:40:32.972Z,97601.91
2023-03-22T10:43:11.868Z,97612.75
2023-03-22T10:45:39.676Z,97594.16
2023-03-22T10:48:29.990Z,97572.16
2023-03-22T10:50:58.991Z,97557.00
2023-03-22T10:53:33.391Z,97547.56
2023-03-22T10:56:00.365Z,97609.22
2023-03-22T10:58:32.597Z,97583.03
2023-03-22T11:01:05.174Z,97574.78
2023-03-22T11:03:44.650Z,97606.69
2023-03-22T11:06:14.697Z,97598.44
2023-03-22T11:08:42.850Z,97602.66
2023-03-22T11:11:40.347Z,97598.53
2023-03-22T11:14:16.975Z,97611.19
2023-03-22T11:16:53.595Z,97598.75
2023-03-22T11:19:31.593Z,97567.97
2023-03-22T11:22:00.553Z,97565.22
2023-03-22T11:24:30.330Z,97582.81
2023-03-22T11:27:03.407Z,97612.97
2023-03-22T11:29:46.662Z,97607.44
2023-03-22T11:32:37.362Z,97644.50
2023-03-22T11:35:16.225Z,97650.59
2023-03-22T11:37:45.181Z,97663.13
2023-03-22T11:40:33.430Z,97652.09
2023-03-22T11:43:27.075Z,97643.03
2023-03-22T11:45:56.504Z,97665.28
2023-03-22T11:48:27.534Z,97663.19
2023-03-22T11:50:59.725Z,97676.31
2023-03-22T11:53:28.381Z,97632.31
2023-03-22T11:55:57.815Z,97652.75
2023-03-22T11:58:27.142Z,97673.41
2023-03-22T12:01:01.533Z,97658.88
2023-03-22T12:03:37.595Z,97620.09
2023-03-22T12:06:16.751Z,97651.88
2023-03-22T12:08:49.557Z,97673.47
2023-03-22T12:11:40.179Z,97669.66
2023-03-22T12:14:16.216Z,97669.38
2023-03-22T12:17:11.090Z,97679.47
2023-03-22T12:20:02.562Z,97686.44
2023-03-22T12:22:35.355Z,97689.34
2023-03-22T12:25:03.617Z,97621.41
2023-03-22T12:27:41.723Z,97688.78
2023-03-22T12:30:22.674Z,97639.13
2023-03-22T12:32:58.416Z,97703.31
2023-03-22T12:35:30.185Z,97695.22
2023-03-22T12:38:00.446Z,97718.47
2023-03-22T12:40:38.044Z,97716.63
2023-03-22T12:43:23.162Z,97733.53
2023-03-22T12:45:55.293Z,97688.28
2023-03-22T12:48:31.811Z,97724.25
2023-03-22T12:51:03.325Z,97746.19
2023-03-22T12:53:42.665Z,97737.63
2023-03-22T12:56:17.926Z,97737.56
2023-03-22T12:58:51.933Z,97728.63
2023-03-22T13:01:45.886Z,97700.69
2023-03-22T13:04:38.897Z,97730.16
2023-03-22T13:07:13.978Z,97725.28
2023-03-22T13:09:46.152Z,97693.81
2023-03-22T13:12:16.455Z,97728.28
2023-03-22T13:14:52.217Z,97730.28
2023-03-22T13:17:25.436Z,97716.81
2023-03-22T13:20:08.059Z,97727.84
2023-03-22T13:22:38.044Z,97711.38
2023-03-22T13:25:12.649Z,97733.72
2023-03-22T13:27:45.358Z,97733.34
2023-03-22T13:30:26.123Z,97724.81
2023-03-22T13:33:11.200Z,97724.31
2023-03-22T13:35:49.034Z,97724.66
2023-03-22T13:38:32.619Z,97703.06
2023-03-22T13:41:05.045Z,97735.44
2023-03-22T13:43:50.192Z,97730.47
2023-03-22T13:46:20.663Z,97741.28
2023-03-22T13:48:47.917Z,97753.13
2023-03-22T13:51:21.668Z,97701.41
2023-03-22T13:54:24.018Z,97755.47
2023-03-22T13:57:01.041Z,97770.34
2023-03-22T13:59:27.904Z,97772.03
2023-03-22T14:01:57.593Z,97781.94
2023-03-22T14:04:36.556Z,97780.66
2023-03-22T14:07:40.662Z,97785.78
2023-03-22T14:10:28.301Z,97798.50
2023-03-22T14:12:59.643Z,97796.31
2023-03-22T14:15:31.512Z,97838.59
2023-03-22T14:18:12.558Z,97834.97
2023-03-22T14:20:40.219Z,97830.66
